Corinth Center, Vermont
Current Conditions -  °F | °C
As of 7:51 AM on Friday 19 Dec 2014 (Local Time) from KMPV Reporting Station
Overcast Overcast  
Wind Chill: 12°   Ceiling: 1600
Heat Index: 23°   Visibility: 10mi
Dew Point: 19°   Wind: 12mph
Humidity: 85%   Direction: 310°NW
Pressure: 29.98"   Gusts: 18mph
Location:  44.0361°N, 72.2949°W
Report Text: KMPV 191251Z AUTO 31010G16KT 10SM OVC016 M05/M07 A2998 RMK AO2 SLP170 T10501072
Loading
Personal Weather Stations






























Interactive Weather Map New forecast layout! Learn more

10-Day Weather Forecast

Advertisements
Track Severe Weather on mobile